Time;durP1;ratioP1;P1;durP2;ratioP2;P2;SDS_P1;SDS_P2;PMS_P1;PMS_P2;Temp;Humidity;BMP_temperature;BMP_pressure;BME280_temperature;BME280_humidity;BME280_pressure;Samples;Min_cycle;Max_cycle;Signal;HPM_P1;HPM_P2
2022/10/13 00:00:05;;;;;;;5.80;5.40;;;;;;;;;;4972508;28;20453;-72
2022/10/13 00:02:31;;;;;;;6.47;5.97;;;;;;;;;;4971440;28;20438;-70
2022/10/13 00:04:57;;;;;;;4.80;4.50;;;;;;;;;;4971744;28;20462;-70
2022/10/13 00:07:23;;;;;;;5.30;4.33;;;;;;;;;;4971188;28;20480;-70
2022/10/13 00:09:49;;;;;;;5.20;4.80;;;;;;;;;;4972880;28;20482;-70
2022/10/13 00:12:14;;;;;;;5.27;4.77;;;;;;;;;;4973273;28;20422;-70
2022/10/13 00:14:40;;;;;;;13.50;5.47;;;;;;;;;;4972224;28;21030;-70
2022/10/13 00:17:06;;;;;;;8.20;5.43;;;;;;;;;;4971877;28;20788;-70
2022/10/13 00:19:32;;;;;;;9.67;5.73;;;;;;;;;;4972350;28;20449;-71
2022/10/13 00:21:58;;;;;;;9.93;4.93;;;;;;;;;;4970908;28;20462;-69
2022/10/13 00:24:24;;;;;;;6.37;5.70;;;;;;;;;;4971623;28;20449;-71
2022/10/13 00:26:51;;;;;;;5.30;4.80;;;;;;;;;;4972836;28;20456;-70
2022/10/13 00:29:17;;;;;;;6.10;4.90;;;;;;;;;;4972102;28;20470;-70
2022/10/13 00:31:43;;;;;;;6.33;5.63;;;;;;;;;;4969062;28;20446;-69
2022/10/13 00:34:09;;;;;;;11.53;5.23;;;;;;;;;;4970504;28;20473;-71
2022/10/13 00:36:35;;;;;;;10.60;5.03;;;;;;;;;;4971555;28;20477;-69
2022/10/13 00:39:01;;;;;;;6.63;6.00;;;;;;;;;;4972851;28;21819;-70
2022/10/13 00:41:27;;;;;;;8.67;5.97;;;;;;;;;;4970719;28;20496;-71
2022/10/13 00:43:57;;;;;;;17.50;6.57;;;;;;;;;;4972343;28;20986;-71
2022/10/13 00:46:25;;;;;;;11.47;6.43;;;;;;;;;;4971418;28;20536;-71
2022/10/13 00:48:51;;;;;;;10.87;5.83;;;;;;;;;;4972132;28;20484;-70
2022/10/13 00:51:19;;;;;;;11.10;6.60;;;;;;;;;;4970760;28;20805;-69
2022/10/13 00:53:47;;;;;;;15.70;6.33;;;;;;;;;;4971158;28;20505;-69
2022/10/13 00:56:14;;;;;;;8.33;5.77;;;;;;;;;;4970541;28;20537;-73
2022/10/13 00:58:40;;;;;;;11.13;6.37;;;;;;;;;;4972205;28;20433;-70
2022/10/13 01:01:06;;;;;;;11.07;6.00;;;;;;;;;;4970670;28;20494;-68
2022/10/13 01:03:33;;;;;;;7.70;7.10;;;;;;;;;;4970892;28;20430;-69
2022/10/13 01:06:01;;;;;;;6.13;5.47;;;;;;;;;;4969123;28;20450;-71
2022/10/13 01:08:28;;;;;;;9.67;6.27;;;;;;;;;;4971363;28;20441;-71
2022/10/13 01:10:54;;;;;;;8.93;5.67;;;;;;;;;;4971691;28;20485;-71
2022/10/13 01:13:41;;;;;;;8.07;6.60;;;;;;;;;;4971862;28;20430;-70
2022/10/13 01:16:07;;;;;;;8.10;7.30;;;;;;;;;;4971662;28;20536;-71
2022/10/13 01:18:42;;;;;;;8.73;7.13;;;;;;;;;;4970711;28;20518;-71
2022/10/13 01:21:13;;;;;;;7.80;6.93;;;;;;;;;;4971327;28;20449;-71
2022/10/13 01:23:58;;;;;;;8.30;6.87;;;;;;;;;;4971470;28;20922;-68
2022/10/13 01:26:54;;;;;;;11.97;6.70;;;;;;;;;;4969257;28;20442;-69
2022/10/13 01:29:29;;;;;;;9.10;7.10;;;;;;;;;;4971670;28;20450;-71
2022/10/13 01:32:14;;;;;;;11.80;6.93;;;;;;;;;;4971404;28;20496;-69
2022/10/13 01:34:43;;;;;;;15.43;7.77;;;;;;;;;;4968783;28;20473;-71
2022/10/13 01:37:14;;;;;;;9.87;7.00;;;;;;;;;;4970366;28;20947;-69
2022/10/13 01:39:49;;;;;;;16.73;7.10;;;;;;;;;;4969358;28;20943;-71
2022/10/13 01:42:18;;;;;;;7.40;6.70;;;;;;;;;;4970696;28;20446;-68
2022/10/13 01:44:47;;;;;;;12.43;8.33;;;;;;;;;;4970379;28;20444;-70
2022/10/13 01:47:15;;;;;;;7.97;7.27;;;;;;;;;;4971860;28;20442;-70
2022/10/13 01:49:41;;;;;;;8.80;6.90;;;;;;;;;;4969447;28;20477;-71
2022/10/13 01:52:09;;;;;;;12.13;6.60;;;;;;;;;;4970580;28;20438;-70
2022/10/13 01:54:35;;;;;;;7.07;6.50;;;;;;;;;;4970251;28;20887;-70
2022/10/13 01:57:01;;;;;;;6.43;5.93;;;;;;;;;;4971072;28;20918;-69
2022/10/13 01:59:29;;;;;;;7.40;6.63;;;;;;;;;;4971744;28;20434;-70
2022/10/13 02:02:01;;;;;;;8.90;6.60;;;;;;;;;;4968706;28;20770;-71
2022/10/13 02:04:27;;;;;;;9.77;6.00;;;;;;;;;;4971028;28;20466;-71
2022/10/13 02:06:57;;;;;;;9.93;7.40;;;;;;;;;;4969342;28;20480;-72
2022/10/13 02:09:40;;;;;;;8.77;7.03;;;;;;;;;;4971268;28;20469;-71
2022/10/13 02:12:09;;;;;;;12.13;7.70;;;;;;;;;;4970579;28;20461;-69
2022/10/13 02:14:37;;;;;;;9.63;8.37;;;;;;;;;;4969762;28;20489;-68
2022/10/13 02:17:04;;;;;;;10.40;9.07;;;;;;;;;;4969943;28;20437;-69
2022/10/13 02:19:33;;;;;;;13.80;9.57;;;;;;;;;;4971486;28;20426;-70
2022/10/13 02:21:59;;;;;;;14.13;9.20;;;;;;;;;;4970704;28;20426;-70
2022/10/13 02:24:25;;;;;;;11.00;9.57;;;;;;;;;;4969927;28;20446;-69
2022/10/13 02:26:51;;;;;;;11.80;10.30;;;;;;;;;;4970383;28;20923;-70
2022/10/13 02:29:17;;;;;;;12.87;9.87;;;;;;;;;;4970546;28;20434;-69
2022/10/13 02:31:44;;;;;;;12.00;10.00;;;;;;;;;;4970068;28;20481;-71
2022/10/13 02:34:10;;;;;;;13.73;10.03;;;;;;;;;;4969415;28;20489;-69
2022/10/13 02:36:37;;;;;;;12.80;10.83;;;;;;;;;;4970058;28;20446;-69
2022/10/13 02:39:03;;;;;;;25.83;9.63;;;;;;;;;;4970497;28;20430;-68
2022/10/13 02:41:30;;;;;;;12.53;11.27;;;;;;;;;;4970490;28;20449;-69
2022/10/13 02:43:56;;;;;;;15.37;10.20;;;;;;;;;;4970449;28;20517;-72
2022/10/13 02:46:22;;;;;;;18.40;10.40;;;;;;;;;;4970819;28;20533;-71
2022/10/13 02:48:47;;;;;;;20.70;10.87;;;;;;;;;;4972720;28;20441;-69
2022/10/13 02:51:14;;;;;;;16.33;10.13;;;;;;;;;;4974591;28;20477;-71
2022/10/13 02:53:40;;;;;;;16.70;10.60;;;;;;;;;;4974632;28;20429;-71
2022/10/13 02:56:06;;;;;;;15.60;10.00;;;;;;;;;;4972353;28;20493;-70
2022/10/13 02:58:32;;;;;;;18.70;10.83;;;;;;;;;;4974310;28;20434;-69
2022/10/13 03:01:05;;;;;;;12.30;10.20;;;;;;;;;;4973647;28;20433;-70
2022/10/13 03:03:31;;;;;;;13.37;9.30;;;;;;;;;;4973071;28;20464;-72
2022/10/13 03:05:57;;;;;;;20.97;9.87;;;;;;;;;;4972413;28;20469;-69
2022/10/13 03:08:23;;;;;;;13.10;8.90;;;;;;;;;;4974006;28;21030;-69
2022/10/13 03:10:49;;;;;;;12.93;9.83;;;;;;;;;;4974002;28;20477;-71
2022/10/13 03:13:15;;;;;;;16.00;11.17;;;;;;;;;;4973323;28;20437;-70
2022/10/13 03:15:41;;;;;;;13.17;9.30;;;;;;;;;;4973149;28;20508;-69
2022/10/13 03:18:07;;;;;;;17.80;10.10;;;;;;;;;;4973354;28;20434;-71
2022/10/13 03:20:34;;;;;;;17.40;11.57;;;;;;;;;;4974138;28;20911;-69
2022/10/13 03:23:00;;;;;;;11.97;10.57;;;;;;;;;;4972171;28;20437;-70
2022/10/13 03:25:26;;;;;;;14.10;10.67;;;;;;;;;;4973476;28;20437;-70
2022/10/13 03:27:51;;;;;;;19.23;11.77;;;;;;;;;;4972497;28;20429;-70
2022/10/13 03:30:17;;;;;;;20.37;10.70;;;;;;;;;;4973795;28;20525;-71
2022/10/13 03:32:43;;;;;;;17.87;11.00;;;;;;;;;;4972469;28;20940;-72
2022/10/13 03:35:09;;;;;;;18.27;11.17;;;;;;;;;;4971791;28;20492;-69
2022/10/13 03:37:35;;;;;;;15.50;10.90;;;;;;;;;;4973295;28;20437;-70
2022/10/13 03:40:01;;;;;;;15.07;11.27;;;;;;;;;;4973687;28;20456;-71
2022/10/13 03:42:28;;;;;;;13.37;10.30;;;;;;;;;;4972686;28;20539;-69
2022/10/13 03:44:54;;;;;;;17.50;10.73;;;;;;;;;;4972095;28;20488;-72
2022/10/13 03:47:21;;;;;;;18.47;11.70;;;;;;;;;;4972331;28;20442;-69
2022/10/13 03:49:46;;;;;;;11.23;10.17;;;;;;;;;;4973024;28;20513;-71
2022/10/13 03:52:12;;;;;;;17.63;10.07;;;;;;;;;;4971574;28;20536;-71
2022/10/13 03:54:38;;;;;;;18.73;11.00;;;;;;;;;;4971718;28;20981;-72
2022/10/13 03:57:04;;;;;;;17.30;10.23;;;;;;;;;;4971114;28;20437;-70
2022/10/13 03:59:30;;;;;;;12.03;10.00;;;;;;;;;;4972622;28;20444;-71
2022/10/13 04:01:56;;;;;;;10.50;9.07;;;;;;;;;;4971356;28;20938;-71
2022/10/13 04:04:22;;;;;;;10.63;9.17;;;;;;;;;;4971816;28;20504;-71
2022/10/13 04:06:49;;;;;;;22.90;10.43;;;;;;;;;;4971518;28;20456;-71
2022/10/13 04:09:15;;;;;;;11.77;9.53;;;;;;;;;;4973089;28;20465;-71
2022/10/13 04:11:41;;;;;;;14.50;10.70;;;;;;;;;;4973510;28;20422;-71
2022/10/13 04:14:07;;;;;;;15.50;9.63;;;;;;;;;;4969581;28;21081;-69
2022/10/13 04:16:33;;;;;;;16.70;9.87;;;;;;;;;;4972910;28;20453;-71
2022/10/13 04:19:00;;;;;;;13.60;10.90;;;;;;;;;;4973065;28;20985;-72
2022/10/13 04:21:26;;;;;;;23.23;11.60;;;;;;;;;;4973007;28;20511;-70
2022/10/13 04:23:56;;;;;;;9.70;7.80;;;;;;;;;;4970890;28;20438;-70
2022/10/13 04:26:23;;;;;;;11.97;8.73;;;;;;;;;;4972795;28;20429;-71
2022/10/13 04:28:49;;;;;;;17.63;8.53;;;;;;;;;;4971871;28;20954;-70
2022/10/13 04:31:15;;;;;;;12.67;10.10;;;;;;;;;;4971088;28;20461;-71
2022/10/13 04:33:43;;;;;;;15.00;8.80;;;;;;;;;;4970664;28;20437;-69
2022/10/13 04:36:10;;;;;;;19.23;11.10;;;;;;;;;;4971144;28;20548;-69
2022/10/13 04:38:36;;;;;;;16.70;10.23;;;;;;;;;;4972195;28;20440;-69
2022/10/13 04:41:03;;;;;;;20.07;10.43;;;;;;;;;;4972272;28;20447;-69
2022/10/13 04:43:29;;;;;;;15.20;10.20;;;;;;;;;;4971948;28;20799;-71
2022/10/13 04:46:00;;;;;;;16.73;11.20;;;;;;;;;;4970383;28;20668;-71
2022/10/13 04:48:25;;;;;;;13.67;11.30;;;;;;;;;;4971309;28;21385;-70
2022/10/13 04:50:58;;;;;;;19.00;10.67;;;;;;;;;;4972285;28;20521;-71
2022/10/13 04:53:27;;;;;;;15.30;10.90;;;;;;;;;;4971122;28;20491;-69
2022/10/13 04:55:53;;;;;;;17.07;10.93;;;;;;;;;;4971474;28;20902;-73
2022/10/13 04:58:19;;;;;;;10.77;9.50;;;;;;;;;;4971120;28;20529;-71
2022/10/13 05:00:46;;;;;;;8.63;7.70;;;;;;;;;;4971249;28;20466;-71
2022/10/13 05:03:12;;;;;;;5.80;5.37;;;;;;;;;;4969992;28;20441;-70
2022/10/13 05:05:38;;;;;;;5.70;5.33;;;;;;;;;;4969635;28;20438;-69
2022/10/13 05:08:04;;;;;;;5.37;4.90;;;;;;;;;;4970266;28;20652;-69
2022/10/13 05:10:30;;;;;;;5.53;5.23;;;;;;;;;;4971586;28;20488;-72
2022/10/13 05:12:56;;;;;;;5.30;5.00;;;;;;;;;;4972417;28;20918;-69
2022/10/13 05:15:22;;;;;;;5.97;5.40;;;;;;;;;;4971498;28;20477;-70
2022/10/13 05:17:48;;;;;;;7.67;6.17;;;;;;;;;;4968745;28;20513;-71
2022/10/13 05:20:16;;;;;;;8.60;7.87;;;;;;;;;;4970797;28;20823;-69
2022/10/13 05:22:42;;;;;;;8.10;6.67;;;;;;;;;;4971254;28;20448;-69
2022/10/13 05:25:08;;;;;;;14.43;6.77;;;;;;;;;;4969732;28;20474;-72
2022/10/13 05:27:34;;;;;;;14.57;7.77;;;;;;;;;;4972057;28;20552;-70
2022/10/13 05:30:00;;;;;;;10.90;7.33;;;;;;;;;;4969875;28;20445;-72
2022/10/13 05:32:26;;;;;;;23.13;8.73;;;;;;;;;;4969978;28;20484;-70
2022/10/13 05:34:52;;;;;;;18.77;10.40;;;;;;;;;;4970391;28;20493;-69
2022/10/13 05:37:21;;;;;;;12.40;9.23;;;;;;;;;;4969887;28;20516;-69
2022/10/13 05:39:47;;;;;;;17.80;9.20;;;;;;;;;;4970620;28;20452;-69
2022/10/13 05:42:13;;;;;;;10.63;9.00;;;;;;;;;;4970348;28;20434;-71
2022/10/13 05:44:39;;;;;;;9.50;8.50;;;;;;;;;;4970364;28;20517;-71
2022/10/13 05:47:05;;;;;;;7.87;7.10;;;;;;;;;;4970816;28;21007;-71
2022/10/13 05:49:31;;;;;;;22.03;10.53;;;;;;;;;;4969955;28;20529;-69
2022/10/13 05:52:01;;;;;;;13.33;9.07;;;;;;;;;;4970317;28;20820;-71
2022/10/13 05:54:37;;;;;;;15.90;9.77;;;;;;;;;;4969217;28;20547;-69
2022/10/13 05:57:10;;;;;;;15.93;9.20;;;;;;;;;;4971501;28;20437;-69
2022/10/13 05:59:39;;;;;;;14.27;9.60;;;;;;;;;;4970235;28;20457;-73
2022/10/13 06:02:06;;;;;;;21.13;11.67;;;;;;;;;;4967946;28;20446;-69
2022/10/13 06:04:37;;;;;;;17.30;11.40;;;;;;;;;;4969251;28;20462;-69
2022/10/13 06:07:03;;;;;;;15.13;10.07;;;;;;;;;;4970081;28;20434;-69
2022/10/13 06:09:39;;;;;;;11.73;9.70;;;;;;;;;;4969795;28;20568;-68
2022/10/13 06:12:05;;;;;;;23.07;9.17;;;;;;;;;;4969550;28;20434;-69
2022/10/13 06:14:31;;;;;;;11.77;8.37;;;;;;;;;;4969325;28;20493;-69
2022/10/13 06:16:57;;;;;;;17.00;8.60;;;;;;;;;;4971136;28;20456;-68
2022/10/13 06:19:24;;;;;;;12.80;8.80;;;;;;;;;;4970707;28;20452;-69
2022/10/13 06:21:50;;;;;;;10.87;8.23;;;;;;;;;;4969283;28;20485;-69
2022/10/13 06:24:16;;;;;;;11.33;8.10;;;;;;;;;;4970123;28;20437;-69
2022/10/13 06:26:42;;;;;;;7.90;7.23;;;;;;;;;;4969817;28;20438;-69
2022/10/13 06:29:08;;;;;;;10.60;7.20;;;;;;;;;;4970654;28;20504;-70
2022/10/13 06:31:34;;;;;;;14.60;8.13;;;;;;;;;;4967043;28;20442;-68
2022/10/13 06:34:00;;;;;;;12.80;8.90;;;;;;;;;;4967943;28;20507;-68
2022/10/13 06:36:26;;;;;;;9.60;8.43;;;;;;;;;;4967724;28;20446;-68
2022/10/13 06:38:52;;;;;;;8.03;7.23;;;;;;;;;;4971122;28;20489;-68
2022/10/13 06:41:18;;;;;;;7.27;6.60;;;;;;;;;;4968932;28;20840;-67
2022/10/13 06:43:44;;;;;;;9.33;6.77;;;;;;;;;;4969259;28;20935;-69
2022/10/13 06:46:10;;;;;;;8.13;6.07;;;;;;;;;;4967925;28;20441;-71
2022/10/13 06:48:37;;;;;;;11.00;7.37;;;;;;;;;;4969210;28;20461;-70
2022/10/13 06:51:04;;;;;;;18.63;7.70;;;;;;;;;;4968602;28;20546;-71
2022/10/13 06:53:30;;;;;;;11.50;6.70;;;;;;;;;;4967758;28;20433;-66
2022/10/13 06:55:57;;;;;;;8.80;7.57;;;;;;;;;;4968588;28;20580;-68
2022/10/13 06:58:23;;;;;;;22.33;13.00;;;;;;;;;;4970664;28;20489;-69
2022/10/13 07:00:49;;;;;;;8.80;7.33;;;;;;;;;;4970255;28;20446;-70
2022/10/13 07:03:15;;;;;;;8.90;7.53;;;;;;;;;;4970908;28;20414;-71
2022/10/13 07:05:40;;;;;;;17.93;7.10;;;;;;;;;;4970018;28;20425;-70
2022/10/13 07:08:06;;;;;;;7.77;7.10;;;;;;;;;;4969383;28;20430;-71
2022/10/13 07:10:32;;;;;;;9.20;6.00;;;;;;;;;;4969673;28;20485;-70
2022/10/13 07:12:58;;;;;;;9.73;5.80;;;;;;;;;;4968568;28;20430;-70
2022/10/13 07:15:24;;;;;;;6.87;6.27;;;;;;;;;;4969075;28;20636;-70
2022/10/13 07:17:52;;;;;;;6.60;6.10;;;;;;;;;;4969822;28;20441;-69
2022/10/13 07:20:20;;;;;;;9.47;6.07;;;;;;;;;;4968962;28;20529;-69
2022/10/13 07:22:46;;;;;;;13.50;8.00;;;;;;;;;;4970540;28;20432;-70
2022/10/13 07:25:12;;;;;;;12.40;6.10;;;;;;;;;;4969302;28;20434;-69
2022/10/13 07:27:39;;;;;;;11.70;6.60;;;;;;;;;;4968165;28;20793;-72
2022/10/13 07:30:06;;;;;;;9.73;7.10;;;;;;;;;;4970197;28;20433;-71
2022/10/13 07:32:32;;;;;;;10.80;7.00;;;;;;;;;;4971456;28;20444;-72
2022/10/13 07:34:58;;;;;;;15.33;7.83;;;;;;;;;;4973421;28;20842;-71
2022/10/13 07:37:25;;;;;;;9.43;8.40;;;;;;;;;;4973527;28;20436;-72
2022/10/13 07:39:51;;;;;;;7.60;7.00;;;;;;;;;;4974056;28;20460;-69
2022/10/13 07:42:17;;;;;;;16.30;7.53;;;;;;;;;;4973060;28;20481;-68
2022/10/13 07:44:43;;;;;;;9.13;7.57;;;;;;;;;;4971446;28;20923;-68
2022/10/13 07:47:09;;;;;;;16.63;8.03;;;;;;;;;;4973044;28;20438;-68
2022/10/13 07:49:35;;;;;;;12.10;8.27;;;;;;;;;;4973783;28;20549;-69
2022/10/13 07:52:01;;;;;;;14.10;8.37;;;;;;;;;;4972772;28;20472;-69
2022/10/13 07:54:27;;;;;;;13.60;9.10;;;;;;;;;;4972785;28;20473;-69
2022/10/13 07:56:54;;;;;;;11.27;9.07;;;;;;;;;;4973181;28;20507;-69
2022/10/13 07:59:20;;;;;;;8.57;7.97;;;;;;;;;;4972805;28;20850;-69
2022/10/13 08:01:46;;;;;;;14.17;9.50;;;;;;;;;;4971176;28;20434;-68
2022/10/13 08:04:12;;;;;;;15.57;8.77;;;;;;;;;;4973078;28;20492;-69
2022/10/13 08:06:38;;;;;;;11.63;9.80;;;;;;;;;;4962582;28;20446;-69
2022/10/13 08:09:04;;;;;;;25.77;9.70;;;;;;;;;;4972040;28;20453;-71
2022/10/13 08:11:31;;;;;;;15.97;10.90;;;;;;;;;;4973383;28;20436;-72
2022/10/13 08:14:00;;;;;;;15.13;9.43;;;;;;;;;;4973273;28;20429;-70
2022/10/13 08:16:27;;;;;;;11.50;10.20;;;;;;;;;;4972535;28;20464;-70
2022/10/13 08:18:53;;;;;;;19.43;10.40;;;;;;;;;;4972054;28;20480;-70
2022/10/13 08:21:23;;;;;;;15.03;11.60;;;;;;;;;;4969638;28;20445;-71
2022/10/13 08:23:49;;;;;;;11.83;10.47;;;;;;;;;;4970202;28;20449;-69
2022/10/13 08:26:20;;;;;;;14.93;9.80;;;;;;;;;;4970597;28;20814;-69
2022/10/13 08:28:46;;;;;;;13.50;9.73;;;;;;;;;;4969208;28;20493;-70
2022/10/13 08:31:12;;;;;;;12.87;9.37;;;;;;;;;;4971196;28;20461;-69
2022/10/13 08:33:40;;;;;;;20.30;10.33;;;;;;;;;;4970867;28;20937;-70
2022/10/13 08:36:06;;;;;;;13.27;10.60;;;;;;;;;;4967204;28;20556;-69
2022/10/13 08:38:32;;;;;;;11.03;9.80;;;;;;;;;;4971038;28;20433;-69
2022/10/13 08:40:58;;;;;;;20.40;12.23;;;;;;;;;;4970380;28;20442;-70
2022/10/13 08:43:24;;;;;;;12.90;11.10;;;;;;;;;;4970616;28;20433;-69
2022/10/13 08:45:51;;;;;;;13.53;9.50;;;;;;;;;;4971955;28;20927;-69
2022/10/13 08:48:19;;;;;;;25.53;11.90;;;;;;;;;;4972690;28;20418;-70
2022/10/13 08:50:47;;;;;;;12.77;10.40;;;;;;;;;;4970606;28;20442;-70
2022/10/13 08:53:26;;;;;;;17.50;11.57;;;;;;;;;;4971983;28;21053;-70
2022/10/13 08:55:57;;;;;;;23.57;11.17;;;;;;;;;;4971871;28;20477;-69
2022/10/13 08:58:25;;;;;;;18.43;11.80;;;;;;;;;;4971395;28;20445;-69
2022/10/13 09:00:57;;;;;;;15.50;12.87;;;;;;;;;;4972349;28;20800;-68
2022/10/13 09:03:27;;;;;;;19.70;11.70;;;;;;;;;;4972379;28;20438;-68
2022/10/13 09:05:53;;;;;;;18.93;10.43;;;;;;;;;;4970074;28;20955;-69
2022/10/13 09:08:20;;;;;;;11.57;9.50;;;;;;;;;;4972074;28;20445;-69
2022/10/13 09:10:52;;;;;;;14.20;10.40;;;;;;;;;;4971232;28;20496;-70
2022/10/13 09:13:18;;;;;;;12.13;10.43;;;;;;;;;;4970756;28;20958;-68
2022/10/13 09:15:46;;;;;;;13.10;9.87;;;;;;;;;;4971448;28;20536;-70
2022/10/13 09:18:13;;;;;;;11.60;10.40;;;;;;;;;;4970462;28;20429;-70
2022/10/13 09:20:39;;;;;;;20.80;9.77;;;;;;;;;;4971581;28;20433;-71
2022/10/13 09:23:07;;;;;;;18.43;11.67;;;;;;;;;;4970312;28;20436;-71
2022/10/13 09:25:41;;;;;;;15.63;10.80;;;;;;;;;;4970826;28;20429;-71
2022/10/13 09:28:15;;;;;;;13.60;11.43;;;;;;;;;;4972053;28;20433;-68
2022/10/13 09:30:42;;;;;;;18.87;12.13;;;;;;;;;;4971805;28;20510;-68
2022/10/13 09:33:11;;;;;;;12.00;10.80;;;;;;;;;;4970257;28;20434;-68
2022/10/13 09:35:38;;;;;;;12.77;11.00;;;;;;;;;;4968992;28;20516;-69
2022/10/13 09:38:05;;;;;;;16.90;11.20;;;;;;;;;;4969312;28;20421;-68
2022/10/13 09:40:31;;;;;;;14.57;9.50;;;;;;;;;;4971068;28;20429;-68
2022/10/13 09:42:58;;;;;;;14.53;11.43;;;;;;;;;;4970899;28;20466;-68
2022/10/13 09:45:24;;;;;;;26.53;13.03;;;;;;;;;;4968170;28;20432;-69
2022/10/13 09:47:53;;;;;;;22.10;13.30;;;;;;;;;;4971741;28;20946;-69
2022/10/13 09:50:21;;;;;;;29.20;14.37;;;;;;;;;;4969988;28;20434;-69
2022/10/13 09:52:47;;;;;;;17.83;13.70;;;;;;;;;;4969800;28;20903;-69
2022/10/13 09:55:28;;;;;;;20.60;15.07;;;;;;;;;;4971231;28;21027;-68
2022/10/13 09:57:55;;;;;;;21.53;14.43;;;;;;;;;;4969745;28;20433;-69
2022/10/13 10:00:22;;;;;;;36.20;21.67;;;;;;;;;;4971133;28;20430;-69
2022/10/13 10:02:53;;;;;;;17.20;12.23;;;;;;;;;;4970596;28;20418;-70
2022/10/13 10:05:27;;;;;;;14.97;11.80;;;;;;;;;;4970586;28;20442;-71
2022/10/13 10:07:56;;;;;;;16.30;14.00;;;;;;;;;;4971142;28;20488;-70
2022/10/13 10:10:32;;;;;;;19.73;12.73;;;;;;;;;;4970808;28;20481;-69
2022/10/13 10:12:58;;;;;;;11.80;10.53;;;;;;;;;;4971234;28;20449;-71
2022/10/13 10:15:29;;;;;;;16.40;12.50;;;;;;;;;;4968070;28;20497;-68
2022/10/13 10:18:02;;;;;;;16.13;12.10;;;;;;;;;;4971421;28;20472;-68
2022/10/13 10:20:35;;;;;;;13.20;11.50;;;;;;;;;;4970704;28;20422;-69
2022/10/13 10:23:07;;;;;;;20.20;11.93;;;;;;;;;;4968675;28;21009;-68
2022/10/13 10:25:40;;;;;;;14.97;13.37;;;;;;;;;;4969966;28;20820;-68
2022/10/13 10:28:25;;;;;;;19.50;11.77;;;;;;;;;;4969837;28;20918;-70
2022/10/13 10:30:53;;;;;;;13.80;10.27;;;;;;;;;;4970333;28;20450;-71
2022/10/13 10:33:21;;;;;;;15.40;9.43;;;;;;;;;;4969048;28;20513;-71
2022/10/13 10:35:56;;;;;;;22.27;9.77;;;;;;;;;;4969705;28;20481;-70
2022/10/13 10:38:31;;;;;;;17.73;10.40;;;;;;;;;;4969446;28;20417;-69
2022/10/13 10:41:24;;;;;;;22.50;8.97;;;;;;;;;;4970170;28;20442;-69
2022/10/13 10:43:53;;;;;;;11.97;8.70;;;;;;;;;;4969851;28;20787;-68
2022/10/13 10:46:22;;;;;;;12.17;8.10;;;;;;;;;;4969186;28;20480;-69
2022/10/13 10:48:49;;;;;;;7.67;6.90;;;;;;;;;;4970660;28;20488;-69
2022/10/13 10:51:16;;;;;;;10.10;6.70;;;;;;;;;;4969898;28;20441;-71
2022/10/13 10:54:03;;;;;;;8.70;5.60;;;;;;;;;;4970191;28;20473;-68
2022/10/13 10:56:37;;;;;;;6.03;3.80;;;;;;;;;;4970398;28;20433;-68
2022/10/13 10:59:22;;;;;;;4.73;4.30;;;;;;;;;;4970504;28;20993;-67
2022/10/13 11:01:48;;;;;;;11.13;4.53;;;;;;;;;;4970164;28;20453;-69
2022/10/13 11:04:14;;;;;;;4.03;3.50;;;;;;;;;;4970176;28;20796;-69
2022/10/13 11:06:40;;;;;;;6.70;4.17;;;;;;;;;;4969552;28;20887;-69
2022/10/13 11:09:06;;;;;;;5.27;3.57;;;;;;;;;;4972449;28;20437;-68
2022/10/13 11:11:40;;;;;;;6.37;3.10;;;;;;;;;;4973813;28;20444;-68
2022/10/13 11:14:06;;;;;;;7.30;3.90;;;;;;;;;;4973811;28;20430;-69
2022/10/13 11:16:34;;;;;;;3.77;3.57;;;;;;;;;;4974341;28;20934;-69
2022/10/13 11:19:06;;;;;;;5.87;3.53;;;;;;;;;;4973412;28;20501;-67
2022/10/13 11:21:50;;;;;;;4.47;3.13;;;;;;;;;;4972421;28;20441;-68
2022/10/13 11:24:28;;;;;;;3.13;2.93;;;;;;;;;;4972929;28;20849;-67
2022/10/13 11:26:54;;;;;;;13.60;4.03;;;;;;;;;;4973180;28;20460;-68
2022/10/13 11:29:40;;;;;;;7.37;4.00;;;;;;;;;;4971400;28;20426;-68
2022/10/13 11:32:40;;;;;;;10.17;3.27;;;;;;;;;;4974009;28;20436;-69
2022/10/13 11:35:09;;;;;;;5.73;5.20;;;;;;;;;;4973372;28;20512;-67
2022/10/13 11:38:03;;;;;;;7.73;5.40;;;;;;;;;;4973825;28;20949;-68
2022/10/13 11:40:48;;;;;;;3.90;3.00;;;;;;;;;;4951604;28;20450;-68
2022/10/13 11:43:20;;;;;;;10.30;3.87;;;;;;;;;;4973751;28;20493;-68
2022/10/13 11:45:55;;;;;;;6.30;3.27;;;;;;;;;;4972733;28;20430;-68
2022/10/13 11:48:33;;;;;;;5.37;2.80;;;;;;;;;;4973301;28;20561;-68
2022/10/13 11:51:06;;;;;;;13.80;3.90;;;;;;;;;;4973349;28;20559;-67
2022/10/13 11:53:39;;;;;;;6.83;3.80;;;;;;;;;;4973822;28;20842;-68
2022/10/13 11:56:17;;;;;;;7.73;3.90;;;;;;;;;;4971817;28;20478;-68
2022/10/13 11:58:43;;;;;;;8.57;3.47;;;;;;;;;;4987814;28;20434;-68
2022/10/13 12:01:14;;;;;;;9.20;3.10;;;;;;;;;;4973334;28;20432;-68
2022/10/13 12:03:42;;;;;;;7.83;3.77;;;;;;;;;;4973590;28;20509;-68
2022/10/13 12:06:20;;;;;;;7.47;4.73;;;;;;;;;;4971981;28;20430;-68
2022/10/13 12:08:50;;;;;;;7.27;3.93;;;;;;;;;;4972294;28;20470;-68
2022/10/13 12:11:24;;;;;;;9.20;3.20;;;;;;;;;;4973342;28;20513;-68
2022/10/13 12:13:50;;;;;;;3.10;2.90;;;;;;;;;;4973564;28;20812;-69
2022/10/13 12:16:17;;;;;;;7.20;4.13;;;;;;;;;;4972828;28;20481;-68
2022/10/13 12:18:43;;;;;;;5.67;3.40;;;;;;;;;;4972024;28;20442;-67
2022/10/13 12:21:12;;;;;;;6.27;3.40;;;;;;;;;;4972081;28;20501;-67
2022/10/13 12:23:39;;;;;;;4.10;2.60;;;;;;;;;;4972649;28;20496;-68
2022/10/13 12:26:05;;;;;;;5.03;3.33;;;;;;;;;;4970219;28;20448;-68
2022/10/13 12:28:49;;;;;;;8.43;3.00;;;;;;;;;;4971621;28;20438;-67
2022/10/13 12:31:17;;;;;;;10.13;3.60;;;;;;;;;;4972160;28;20540;-68
2022/10/13 12:33:43;;;;;;;8.03;3.63;;;;;;;;;;4971175;28;20438;-67
2022/10/13 12:36:12;;;;;;;4.10;3.80;;;;;;;;;;4971708;28;20825;-67
2022/10/13 12:38:41;;;;;;;6.97;2.90;;;;;;;;;;4971752;28;20938;-68
2022/10/13 12:41:08;;;;;;;3.37;3.17;;;;;;;;;;4968424;28;20946;-69
2022/10/13 12:43:34;;;;;;;9.00;4.10;;;;;;;;;;4972612;28;20493;-68
2022/10/13 12:46:00;;;;;;;3.33;3.10;;;;;;;;;;4970615;28;20444;-69
2022/10/13 12:48:29;;;;;;;8.07;2.63;;;;;;;;;;4970902;28;20533;-68
2022/10/13 12:51:06;;;;;;;3.57;2.77;;;;;;;;;;4972140;28;20434;-70
2022/10/13 12:53:32;;;;;;;19.27;3.07;;;;;;;;;;4971633;28;20467;-69
2022/10/13 12:55:59;;;;;;;11.93;3.13;;;;;;;;;;4970653;28;20493;-68
2022/10/13 12:58:25;;;;;;;3.97;2.80;;;;;;;;;;4972624;28;20430;-68
2022/10/13 13:01:00;;;;;;;12.20;3.07;;;;;;;;;;4971702;28;20469;-69
2022/10/13 13:03:28;;;;;;;3.17;2.90;;;;;;;;;;4971869;28;20966;-68
2022/10/13 13:06:20;;;;;;;9.83;2.83;;;;;;;;;;4970581;28;20504;-71
2022/10/13 13:08:46;;;;;;;5.90;3.47;;;;;;;;;;4972410;28;20538;-68
2022/10/13 13:11:33;;;;;;;14.23;3.33;;;;;;;;;;4971814;28;20452;-70
2022/10/13 13:14:17;;;;;;;9.73;5.17;;;;;;;;;;4971846;28;20421;-69
2022/10/13 13:17:01;;;;;;;10.87;6.20;;;;;;;;;;4970010;28;20808;-70
2022/10/13 13:19:30;;;;;;;9.93;5.30;;;;;;;;;;4971042;28;20434;-70
2022/10/13 13:21:56;;;;;;;6.87;4.40;;;;;;;;;;4971237;28;20442;-68
2022/10/13 13:24:22;;;;;;;13.73;4.57;;;;;;;;;;4972155;28;20724;-68
2022/10/13 13:26:48;;;;;;;5.90;3.47;;;;;;;;;;4971303;28;20434;-69
2022/10/13 13:29:14;;;;;;;11.67;4.40;;;;;;;;;;4970817;28;20430;-68
2022/10/13 13:31:40;;;;;;;6.13;3.97;;;;;;;;;;4970000;28;20441;-67
2022/10/13 13:34:06;;;;;;;7.07;6.10;;;;;;;;;;4970722;28;20525;-69
2022/10/13 13:36:32;;;;;;;11.30;5.80;;;;;;;;;;4970957;28;20494;-68
2022/10/13 13:38:58;;;;;;;6.40;4.43;;;;;;;;;;4971812;28;21046;-68
2022/10/13 13:41:26;;;;;;;8.33;4.40;;;;;;;;;;4971302;28;20426;-68
2022/10/13 13:43:52;;;;;;;12.60;6.13;;;;;;;;;;4970669;28;20930;-68
2022/10/13 13:46:18;;;;;;;9.23;6.40;;;;;;;;;;4970331;28;20434;-69
2022/10/13 13:48:44;;;;;;;6.10;4.53;;;;;;;;;;4971456;28;20432;-70
2022/10/13 13:51:10;;;;;;;7.77;4.20;;;;;;;;;;4970963;28;20418;-68
2022/10/13 13:53:37;;;;;;;11.93;6.37;;;;;;;;;;4971498;28;20449;-68
2022/10/13 13:56:03;;;;;;;9.43;4.93;;;;;;;;;;4970060;28;21761;-71
2022/10/13 13:58:29;;;;;;;5.50;5.00;;;;;;;;;;4969999;28;20426;-69
2022/10/13 14:00:55;;;;;;;11.60;5.10;;;;;;;;;;4970770;28;20541;-68
2022/10/13 14:03:21;;;;;;;12.10;4.50;;;;;;;;;;4970531;28;20433;-68
2022/10/13 14:05:48;;;;;;;10.03;4.07;;;;;;;;;;4969046;28;20966;-69
2022/10/13 14:08:14;;;;;;;4.30;3.90;;;;;;;;;;4969234;28;20477;-71
2022/10/13 14:10:40;;;;;;;16.13;3.47;;;;;;;;;;4967346;28;20517;-68
2022/10/13 14:13:06;;;;;;;18.33;4.67;;;;;;;;;;4971486;28;20421;-69
2022/10/13 14:15:32;;;;;;;7.37;5.07;;;;;;;;;;4968827;28;21586;-71
2022/10/13 14:17:58;;;;;;;8.37;4.63;;;;;;;;;;4970672;28;20481;-69
2022/10/13 14:20:24;;;;;;;6.50;4.37;;;;;;;;;;4968659;28;20474;-70
2022/10/13 14:22:50;;;;;;;8.73;7.47;;;;;;;;;;4970211;28;20935;-70
2022/10/13 14:25:16;;;;;;;7.73;7.03;;;;;;;;;;4969190;28;20437;-70
2022/10/13 14:27:44;;;;;;;8.30;4.03;;;;;;;;;;4970578;28;20477;-68
2022/10/13 14:30:10;;;;;;;11.50;4.30;;;;;;;;;;4970692;28;20521;-68
2022/10/13 14:32:36;;;;;;;24.87;16.73;;;;;;;;;;4968455;28;20934;-69
2022/10/13 14:35:03;;;;;;;15.53;8.63;;;;;;;;;;4970294;28;20902;-69
2022/10/13 14:37:29;;;;;;;21.53;14.50;;;;;;;;;;4970581;28;20430;-68